Portada
METAR-TAF:

METAR-TAF

Aeroports :

Tanna, Vanuatu

latitud: 19-27-18S, longitud: 169-13-26E, altitud: 6 m

Observació

L'informe es va fer fa 1 hora i 42 minuts, a les 12:00 UTC
Vent 10 kt del Est
Temperatura 20°C
Humitat 83%
Pressió 1016 hPa
Visibilitat 10 km o més
Escasses núvols a una alçada de 2500 ft

METAR: NVVW 171200Z 10010KT 9999 FEW025 20/17 Q1016

Hora: 00:42 (13:42 UTC)

Pronòstic

L'informe es va fer fa 3 hores i 42 minuts, a les 10:00 UTC
Pronòstic vàlid del 17 a les 12 UTC al 18 a les 12 UTC
Vent 8 kt del Est/Sud-Est
Visibilitat 10 km o més
Núvols disperses a una alçada de 2500 ft
Evolucionant progressivament
l' 17 a les 21 UTC al 17 a les 23 UTC
Vent 14 kt del Sud-Est

TAF: NVVW 171000Z 1712/1812 12008KT 9999 SCT025 BECMG 1721/1723 13014KT

Observacions i pronòstics meteorològics de més de 4000 aeroports (METAR i TAF).

Les estacions disponibles són els punts grocs i vermells al mapa.

Posi el ratolí al punt desitjat per veure el nom de l'estació.

Feu clic per veure les observacions i els pronòstics meteorològics.

Per canviar el mapa: feu clic els botons verds amb una creu de color negre per apropar; al botó verd amb un guió per allunyar la imatge; o en les fletxes verdes per a mapes adjacents.


METAR-TAF: